Time;durP1;ratioP1;P1;durP2;ratioP2;P2;SDS_P1;SDS_P2;PMS_P1;PMS_P2;Temp;Humidity;BMP_temperature;BMP_pressure;BME280_temperature;BME280_humidity;BME280_pressure;Samples;Min_cycle;Max_cycle;Signal;HPM_P1;HPM_P2
2022/09/16 00:00:47;;;;;;;4.83;3.67;;;20.90;99.90;;;;;;5008498;28;20189;-72
2022/09/16 00:03:16;;;;;;;7.27;4.30;;;20.90;99.90;;;;;;4987866;28;20212;-72
2022/09/16 00:05:46;;;;;;;6.80;3.70;;;20.90;99.90;;;;;;4996319;28;20180;-72
2022/09/16 00:08:13;;;;;;;4.50;3.20;;;21.00;99.90;;;;;;5011441;28;20188;-72
2022/09/16 00:10:40;;;;;;;6.50;3.50;;;21.00;99.90;;;;;;5011970;28;20320;-72
2022/09/16 00:13:06;;;;;;;6.03;3.37;;;21.00;99.90;;;;;;4993630;28;20181;-72
2022/09/16 00:15:33;;;;;;;4.47;3.17;;;20.80;99.90;;;;;;4994229;28;20192;-72
2022/09/16 00:18:00;;;;;;;7.40;3.57;;;20.80;99.90;;;;;;4989838;28;20778;-72
2022/09/16 00:20:27;;;;;;;4.70;3.13;;;20.60;99.90;;;;;;5005747;28;20196;-72
2022/09/16 00:22:53;;;;;;;4.93;3.20;;;20.50;99.90;;;;;;5011699;28;20184;-72
2022/09/16 00:25:20;;;;;;;4.73;3.33;;;20.50;99.90;;;;;;4993126;28;20288;-72
2022/09/16 00:27:49;;;;;;;6.17;3.43;;;20.40;99.90;;;;;;5011799;28;20233;-72
2022/09/16 00:30:16;;;;;;;6.30;3.27;;;20.30;99.90;;;;;;4983906;28;20176;-72
2022/09/16 00:32:42;;;;;;;5.63;3.03;;;20.20;99.90;;;;;;5009631;28;20185;-72
2022/09/16 00:35:09;;;;;;;6.13;3.03;;;20.20;99.90;;;;;;5001141;28;20201;-72
2022/09/16 00:37:35;;;;;;;6.10;3.30;;;20.10;99.90;;;;;;5004489;28;20188;-72
2022/09/16 00:40:02;;;;;;;6.63;2.87;;;20.10;99.90;;;;;;5007075;28;20184;-72
2022/09/16 00:42:28;;;;;;;8.23;3.60;;;20.10;99.90;;;;;;5000777;28;20181;-72
2022/09/16 00:45:02;;;;;;;7.47;3.00;;;20.10;99.90;;;;;;5009694;28;20212;-72
2022/09/16 00:47:55;;;;;;;9.17;3.10;;;20.10;99.90;;;;;;4993809;28;20191;-72
2022/09/16 00:50:39;;;;;;;5.67;3.00;;;20.00;99.90;;;;;;4978210;28;20185;-72
2022/09/16 00:53:11;;;;;;;7.70;3.13;;;20.00;99.90;;;;;;4993675;28;20181;-72
2022/09/16 00:55:39;;;;;;;6.07;2.80;;;19.90;99.90;;;;;;5010221;28;20560;-72
2022/09/16 00:58:38;;;;;;;5.43;3.03;;;19.90;99.90;;;;;;5011200;28;20192;-72
2022/09/16 01:01:05;;;;;;;5.43;2.90;;;19.90;99.90;;;;;;4974266;28;20228;-72
2022/09/16 01:03:38;;;;;;;6.80;2.63;;;19.90;99.90;;;;;;5009805;28;20235;-72
2022/09/16 01:06:06;;;;;;;2.90;2.47;;;19.80;99.90;;;;;;5009570;28;20173;-72
2022/09/16 01:08:33;;;;;;;4.13;2.70;;;19.80;99.90;;;;;;4987140;28;20180;-72
2022/09/16 01:10:59;;;;;;;4.40;2.50;;;19.90;99.90;;;;;;5010756;28;20713;-72
2022/09/16 01:13:25;;;;;;;4.93;2.53;;;20.00;99.90;;;;;;4997564;28;20190;-72
2022/09/16 01:15:58;;;;;;;3.23;2.50;;;20.00;99.90;;;;;;5006282;28;20193;-72
2022/09/16 01:18:37;;;;;;;2.57;2.37;;;20.10;99.90;;;;;;4989892;28;20183;-72
2022/09/16 01:21:26;;;;;;;5.03;2.80;;;20.00;99.90;;;;;;4973396;28;20308;-72
2022/09/16 01:24:35;;;;;;;5.40;3.00;;;20.10;99.90;;;;;;4991566;28;20214;-72
2022/09/16 01:27:36;;;;;;;6.33;2.67;;;20.10;99.90;;;;;;4990018;28;20188;-72
2022/09/16 01:30:18;;;;;;;5.17;2.70;;;20.00;99.90;;;;;;4990952;28;20184;-72
2022/09/16 01:33:07;;;;;;;5.93;2.70;;;20.00;99.90;;;;;;4972974;28;20178;-72
2022/09/16 01:35:46;;;;;;;4.70;2.37;;;20.00;99.90;;;;;;4984811;28;20187;-72
2022/09/16 01:38:47;;;;;;;5.87;2.80;;;20.00;99.90;;;;;;5010420;28;20185;-72
2022/09/16 01:41:52;;;;;;;4.47;2.90;;;20.00;99.90;;;;;;4999736;28;20622;-72
2022/09/16 01:44:48;;;;;;;7.90;2.80;;;20.00;99.90;;;;;;4991927;28;20669;-72
2022/09/16 01:47:33;;;;;;;4.20;2.30;;;19.90;99.90;;;;;;5007161;28;20697;-72
2022/09/16 01:50:49;;;;;;;7.13;2.83;;;19.90;99.90;;;;;;4992639;28;20177;-72
2022/09/16 01:53:41;;;;;;;4.57;2.70;;;19.90;99.90;;;;;;4992606;28;20193;-72
2022/09/16 01:56:19;;;;;;;6.33;2.77;;;19.90;99.90;;;;;;5008928;28;20177;-72
2022/09/16 01:59:08;;;;;;;4.70;2.60;;;19.90;99.90;;;;;;5009138;28;20185;-72
2022/09/16 02:02:14;;;;;;;8.23;2.77;;;20.00;99.90;;;;;;5010308;28;20196;-72
2022/09/16 02:04:56;;;;;;;5.40;2.90;;;20.00;99.90;;;;;;4960179;28;20320;-72
2022/09/16 02:07:34;;;;;;;4.00;2.70;;;20.00;99.90;;;;;;5006667;28;20188;-72
2022/09/16 02:10:15;;;;;;;4.97;2.97;;;20.00;99.90;;;;;;4972872;28;20177;-72
2022/09/16 02:12:46;;;;;;;6.10;2.90;;;20.00;99.90;;;;;;4973089;28;20185;-72
2022/09/16 02:15:21;;;;;;;7.73;2.37;;;20.00;99.90;;;;;;4998152;28;20177;-72
2022/09/16 02:18:00;;;;;;;8.80;3.10;;;20.00;99.90;;;;;;5003053;28;20180;-72
2022/09/16 02:20:31;;;;;;;8.30;2.83;;;20.00;99.90;;;;;;5006061;28;20177;-72
2022/09/16 02:23:19;;;;;;;5.33;2.50;;;20.00;99.90;;;;;;5002329;28;20232;-72
2022/09/16 02:25:49;;;;;;;7.40;2.73;;;20.00;99.90;;;;;;4988855;28;20200;-72
2022/09/16 02:28:31;;;;;;;5.03;3.00;;;20.00;99.90;;;;;;5002297;28;20267;-72
2022/09/16 02:31:04;;;;;;;7.00;2.57;;;20.00;99.90;;;;;;5000363;28;20196;-72
2022/09/16 02:33:52;;;;;;;4.77;2.87;;;20.00;99.90;;;;;;5009005;28;20180;-72
2022/09/16 02:36:24;;;;;;;5.83;2.93;;;20.00;99.90;;;;;;4991301;28;20268;-72
2022/09/16 02:39:08;;;;;;;5.03;2.87;;;20.00;99.90;;;;;;4995263;28;20212;-72
2022/09/16 02:41:37;;;;;;;5.17;2.93;;;20.00;99.90;;;;;;5007363;28;20196;-72
2022/09/16 02:44:04;;;;;;;6.87;2.83;;;20.00;99.90;;;;;;5007494;28;20215;-72
2022/09/16 02:46:45;;;;;;;4.63;2.97;;;20.00;99.90;;;;;;4998445;28;20181;-72
2022/09/16 02:49:27;;;;;;;4.93;2.70;;;20.00;99.90;;;;;;4969935;28;20198;-72
2022/09/16 02:52:32;;;;;;;4.67;2.50;;;20.10;99.90;;;;;;4996062;28;20199;-70
2022/09/16 02:55:21;;;;;;;6.00;2.77;;;20.10;99.90;;;;;;5001429;28;20191;-73
2022/09/16 02:57:49;;;;;;;5.23;2.60;;;20.00;99.90;;;;;;4972607;28;20255;-70
2022/09/16 03:00:19;;;;;;;7.60;2.80;;;20.10;99.90;;;;;;4992516;28;20190;-73
2022/09/16 03:02:46;;;;;;;3.93;2.80;;;20.00;99.90;;;;;;4990004;28;20802;-73
2022/09/16 03:05:13;;;;;;;5.47;2.83;;;20.00;99.90;;;;;;5016071;28;20200;-73
2022/09/16 03:07:41;;;;;;;4.13;2.40;;;20.00;99.90;;;;;;4968371;28;20192;-73
2022/09/16 03:10:13;;;;;;;4.40;2.40;;;20.00;99.90;;;;;;5008420;28;20528;-73
2022/09/16 03:13:17;;;;;;;5.10;2.67;;;19.90;99.90;;;;;;4993057;28;20177;-70
2022/09/16 03:16:24;;;;;;;7.03;2.97;;;19.90;99.90;;;;;;4972899;28;20192;-72
2022/09/16 03:19:08;;;;;;;8.10;3.00;;;19.90;99.90;;;;;;5002217;28;20185;-72
2022/09/16 03:21:51;;;;;;;6.30;2.70;;;19.90;99.90;;;;;;4989973;28;20264;-72
2022/09/16 03:24:40;;;;;;;4.50;2.83;;;19.90;99.90;;;;;;4999840;28;20678;-72
2022/09/16 03:27:28;;;;;;;4.07;2.80;;;19.90;99.90;;;;;;4990571;28;20189;-72
2022/09/16 03:30:09;;;;;;;3.73;2.60;;;19.90;99.90;;;;;;4989788;28;20188;-72
2022/09/16 03:32:59;;;;;;;7.20;2.87;;;19.90;99.90;;;;;;4992143;28;20184;-72
2022/09/16 03:35:48;;;;;;;5.77;2.70;;;19.90;99.90;;;;;;4992355;28;20624;-72
2022/09/16 03:38:18;;;;;;;5.60;2.50;;;19.90;99.90;;;;;;4980661;28;20264;-72
2022/09/16 03:40:47;;;;;;;4.80;2.80;;;19.80;99.90;;;;;;5000037;28;20531;-72
2022/09/16 03:43:17;;;;;;;4.87;2.50;;;19.90;99.90;;;;;;4991694;28;20279;-72
2022/09/16 03:45:44;;;;;;;3.57;2.77;;;19.90;99.90;;;;;;4974484;28;20220;-72
2022/09/16 03:48:12;;;;;;;7.50;2.60;;;19.90;99.90;;;;;;4995352;28;20200;-72
2022/09/16 03:50:39;;;;;;;5.47;2.50;;;20.00;99.90;;;;;;5005844;28;20519;-72
2022/09/16 03:53:05;;;;;;;4.63;2.43;;;20.00;99.90;;;;;;4992906;28;20611;-72
2022/09/16 03:55:35;;;;;;;4.40;2.77;;;20.10;99.90;;;;;;5013482;28;20193;-72
2022/09/16 03:58:05;;;;;;;4.43;2.50;;;20.10;99.90;;;;;;5015815;28;20332;-72
2022/09/16 04:00:32;;;;;;;5.73;3.17;;;20.10;99.90;;;;;;4995648;28;20624;-72
2022/09/16 04:02:59;;;;;;;4.37;2.63;;;20.00;99.90;;;;;;5003394;28;20235;-72
2022/09/16 04:05:29;;;;;;;6.17;2.77;;;20.00;99.90;;;;;;4994845;28;20208;-72
2022/09/16 04:07:55;;;;;;;5.00;2.87;;;20.00;99.90;;;;;;5004751;28;20627;-72
2022/09/16 04:10:21;;;;;;;7.13;2.47;;;20.00;99.90;;;;;;4999529;28;20662;-72
2022/09/16 04:12:49;;;;;;;5.93;2.70;;;20.00;99.90;;;;;;5009572;28;20227;-72
2022/09/16 04:15:15;;;;;;;4.27;2.70;;;20.00;99.90;;;;;;4988340;28;20193;-72
2022/09/16 04:17:41;;;;;;;6.27;2.50;;;20.00;99.90;;;;;;5022420;28;20674;-72
2022/09/16 04:20:08;;;;;;;3.97;2.70;;;20.00;99.90;;;;;;5009875;28;20264;-72
2022/09/16 04:22:34;;;;;;;6.10;3.00;;;20.00;99.90;;;;;;4986254;28;20203;-72
2022/09/16 04:25:01;;;;;;;4.77;2.53;;;20.00;99.90;;;;;;5026999;28;20674;-72
2022/09/16 04:27:27;;;;;;;6.37;2.90;;;20.00;99.90;;;;;;5017465;28;20581;-72
2022/09/16 04:29:55;;;;;;;6.00;2.50;;;20.00;99.90;;;;;;4999547;28;20303;-72
2022/09/16 04:32:21;;;;;;;7.17;3.00;;;20.00;99.90;;;;;;4993514;28;20284;-72
2022/09/16 04:34:47;;;;;;;9.77;2.60;;;20.00;99.90;;;;;;5005967;28;20189;-72
2022/09/16 04:37:13;;;;;;;6.37;2.90;;;20.00;99.90;;;;;;5015335;28;20280;-72
2022/09/16 04:39:40;;;;;;;3.40;2.30;;;20.00;99.90;;;;;;4996501;28;20193;-72
2022/09/16 04:42:06;;;;;;;3.50;2.30;;;20.00;99.90;;;;;;4991288;28;20189;-72
2022/09/16 04:44:33;;;;;;;7.43;3.13;;;20.00;99.90;;;;;;4993548;28;20251;-72
2022/09/16 04:47:01;;;;;;;7.47;3.00;;;20.00;99.90;;;;;;4997133;28;20216;-72
2022/09/16 04:49:27;;;;;;;5.00;2.87;;;20.00;99.90;;;;;;4984198;28;20185;-72
2022/09/16 04:51:53;;;;;;;4.33;3.13;;;20.00;99.90;;;;;;5014154;28;20223;-72
2022/09/16 04:54:20;;;;;;;4.17;2.53;;;20.10;99.90;;;;;;4990425;28;20197;-72
2022/09/16 04:56:47;;;;;;;6.73;2.70;;;20.10;99.90;;;;;;5007116;28;20193;-72
2022/09/16 04:59:13;;;;;;;4.63;2.60;;;20.10;99.90;;;;;;5006660;28;20193;-72
2022/09/16 05:01:40;;;;;;;5.30;2.70;;;20.20;99.90;;;;;;5001648;28;20192;-72
2022/09/16 05:04:08;;;;;;;4.10;2.90;;;20.30;99.90;;;;;;4988576;28;20213;-72
2022/09/16 05:06:39;;;;;;;5.33;2.53;;;20.40;99.90;;;;;;4987480;28;20185;-72
2022/09/16 05:09:06;;;;;;;9.73;3.03;;;20.40;99.90;;;;;;4990029;28;20655;-72
2022/09/16 05:11:37;;;;;;;4.83;2.80;;;20.50;99.90;;;;;;4985704;28;20192;-72
2022/09/16 05:14:12;;;;;;;6.23;2.90;;;20.60;99.90;;;;;;5009584;28;20192;-72
2022/09/16 05:16:39;;;;;;;7.20;3.00;;;20.70;99.90;;;;;;5003388;28;20211;-72
2022/09/16 05:19:05;;;;;;;5.37;2.57;;;20.80;99.90;;;;;;4996175;28;20212;-72
2022/09/16 05:21:35;;;;;;;6.10;2.63;;;20.80;99.90;;;;;;5010265;28;20197;-72
2022/09/16 05:24:07;;;;;;;5.00;2.90;;;20.80;99.90;;;;;;5000506;28;20242;-72
2022/09/16 05:26:37;;;;;;;7.30;3.10;;;20.90;99.90;;;;;;5010531;28;20193;-72
2022/09/16 05:29:12;;;;;;;8.93;2.67;;;20.90;99.90;;;;;;5010825;28;20217;-72
2022/09/16 05:31:41;;;;;;;4.93;2.70;;;20.90;99.90;;;;;;5004773;28;20201;-72
2022/09/16 05:34:21;;;;;;;4.33;2.87;;;21.00;99.90;;;;;;5004039;28;20295;-72
2022/09/16 05:36:52;;;;;;;3.40;2.60;;;21.00;99.90;;;;;;4974031;28;20196;-72
2022/09/16 05:39:19;;;;;;;4.83;2.40;;;21.10;99.90;;;;;;4984859;28;20258;-72
2022/09/16 05:41:47;;;;;;;5.97;2.77;;;21.10;99.90;;;;;;5003371;28;20196;-72
2022/09/16 05:44:14;;;;;;;4.10;2.50;;;21.20;99.90;;;;;;4992970;28;20248;-72
2022/09/16 05:46:41;;;;;;;6.00;2.70;;;21.30;99.90;;;;;;4991944;28;20192;-72
2022/09/16 05:49:08;;;;;;;7.53;2.80;;;21.30;99.90;;;;;;5009070;28;20192;-72
2022/09/16 05:51:40;;;;;;;8.17;2.67;;;21.30;99.90;;;;;;4984757;28;20176;-72
2022/09/16 05:54:07;;;;;;;3.73;2.60;;;21.40;99.90;;;;;;4979434;28;20201;-72
2022/09/16 05:56:34;;;;;;;8.53;3.00;;;21.40;99.90;;;;;;4991554;28;20273;-72
2022/09/16 05:59:01;;;;;;;3.40;2.50;;;21.40;99.90;;;;;;5008123;28;20219;-72
2022/09/16 06:01:34;;;;;;;5.10;2.50;;;21.50;99.90;;;;;;4996574;28;20193;-72
2022/09/16 06:04:04;;;;;;;5.53;2.90;;;21.60;99.90;;;;;;5012778;28;20208;-72
2022/09/16 06:06:34;;;;;;;2.97;2.40;;;21.70;99.90;;;;;;4985708;28;20191;-72
2022/09/16 06:09:14;;;;;;;4.47;2.80;;;21.70;99.90;;;;;;5020878;28;20196;-72
2022/09/16 06:11:47;;;;;;;6.10;2.67;;;21.80;99.90;;;;;;4973280;28;20195;-72
2022/09/16 06:14:15;;;;;;;7.18;2.40;;;21.80;99.90;;;;;;5002631;28;20193;-72
2022/09/16 06:16:42;;;;;;;3.23;2.27;;;21.90;99.90;;;;;;4996227;28;20189;-72
2022/09/16 06:19:14;;;;;;;6.82;2.72;;;21.90;99.90;;;;;;5009969;28;20669;-72
2022/09/16 06:21:42;;;;;;;4.53;2.42;;;21.90;99.90;;;;;;5007357;28;20200;-72
2022/09/16 06:24:10;;;;;;;4.85;2.60;;;22.00;99.90;;;;;;5004484;28;20259;-72
2022/09/16 06:26:40;;;;;;;3.80;2.28;;;22.10;99.90;;;;;;4994715;28;20197;-72
2022/09/16 06:29:08;;;;;;;9.80;2.70;;;22.10;99.90;;;;;;4999599;28;20199;-72
2022/09/16 06:31:36;;;;;;;4.67;2.30;;;22.20;99.90;;;;;;4996744;28;20288;-72
2022/09/16 06:34:04;;;;;;;5.30;2.45;;;22.30;99.90;;;;;;5005313;28;20193;-72
2022/09/16 06:36:37;;;;;;;7.18;2.60;;;22.30;99.90;;;;;;5008243;28;20188;-72
2022/09/16 06:39:05;;;;;;;7.25;2.38;;;22.50;99.90;;;;;;5005063;28;20208;-72
2022/09/16 06:41:33;;;;;;;5.20;2.53;;;22.60;99.90;;;;;;4978146;28;20189;-72
2022/09/16 06:44:01;;;;;;;3.85;2.45;;;22.60;99.90;;;;;;5001841;28;20205;-72
2022/09/16 06:46:28;;;;;;;5.53;2.20;;;22.70;99.90;;;;;;4985219;28;20672;-71
2022/09/16 06:49:01;;;;;;;4.10;2.58;;;22.80;99.90;;;;;;5007203;28;20265;-72
2022/09/16 06:51:31;;;;;;;4.13;2.20;;;22.90;99.90;;;;;;5010320;28;20538;-72
2022/09/16 06:54:04;;;;;;;3.17;2.10;;;23.00;99.90;;;;;;5016637;28;20220;-72
2022/09/16 06:56:32;;;;;;;6.93;2.70;;;22.90;99.90;;;;;;5024010;28;20191;-72
2022/09/16 06:58:59;;;;;;;4.13;2.50;;;23.10;99.90;;;;;;5008820;28;20185;-72
2022/09/16 07:01:31;;;;;;;7.57;2.83;;;23.30;99.90;;;;;;5019274;28;20204;-72
2022/09/16 07:04:04;;;;;;;3.95;2.40;;;23.30;99.90;;;;;;4983518;28;20697;-72
2022/09/16 07:06:32;;;;;;;4.85;2.50;;;23.40;99.90;;;;;;5002315;28;20251;-72
2022/09/16 07:09:00;;;;;;;7.15;2.70;;;23.50;99.90;;;;;;4981105;28;20582;-72
2022/09/16 07:11:27;;;;;;;5.25;2.72;;;23.60;99.90;;;;;;5007059;28;20212;-72
2022/09/16 07:13:54;;;;;;;3.90;2.30;;;23.60;99.90;;;;;;4994449;28;20185;-72
2022/09/16 07:16:24;;;;;;;4.20;2.50;;;23.70;99.90;;;;;;4986000;28;20590;-72
2022/09/16 07:18:58;;;;;;;6.13;2.60;;;23.90;99.90;;;;;;5010186;28;20208;-72
2022/09/16 07:21:29;;;;;;;5.25;2.33;;;24.00;99.90;;;;;;5008761;28;20234;-72
2022/09/16 07:24:01;;;;;;;3.83;2.45;;;24.00;99.90;;;;;;5003612;28;20985;-72
2022/09/16 07:26:34;;;;;;;5.47;2.47;;;24.10;99.90;;;;;;5001236;28;20184;-72
2022/09/16 07:29:06;;;;;;;6.38;2.45;;;24.30;99.90;;;;;;5017823;28;20185;-72
2022/09/16 07:31:36;;;;;;;5.90;2.53;;;24.40;99.90;;;;;;5010300;28;20192;-72
2022/09/16 07:34:07;;;;;;;6.18;2.38;;;24.50;99.90;;;;;;4974733;28;20197;-72
2022/09/16 07:36:41;;;;;;;6.65;2.63;;;24.60;99.90;;;;;;4993961;28;20188;-72
2022/09/16 07:39:09;;;;;;;5.43;2.53;;;24.70;99.90;;;;;;5003985;28;20275;-72
2022/09/16 07:41:40;;;;;;;4.63;2.63;;;24.80;99.90;;;;;;4987107;28;20574;-72
2022/09/16 07:44:12;;;;;;;5.57;2.58;;;25.00;99.90;;;;;;5014432;28;20577;-72
2022/09/16 07:46:41;;;;;;;6.75;2.17;;;25.00;99.90;;;;;;4997235;28;20243;-72
2022/09/16 07:49:11;;;;;;;4.50;2.75;;;25.10;99.90;;;;;;4979057;28;20315;-72
2022/09/16 07:51:37;;;;;;;6.55;2.65;;;25.10;99.90;;;;;;5003243;28;20181;-73
2022/09/16 07:54:07;;;;;;;7.75;2.70;;;25.20;99.90;;;;;;4994988;28;20200;-74
2022/09/16 07:56:37;;;;;;;5.80;2.33;;;25.40;99.90;;;;;;5011740;28;20287;-72
2022/09/16 07:59:10;;;;;;;5.88;2.60;;;25.40;99.90;;;;;;5011590;28;20698;-73
2022/09/16 08:01:37;;;;;;;6.82;2.80;;;25.50;99.90;;;;;;4988617;28;20201;-72
2022/09/16 08:04:03;;;;;;;5.20;2.50;;;25.50;99.90;;;;;;4971815;28;20208;-72
2022/09/16 08:06:32;;;;;;;4.93;2.42;;;25.70;99.90;;;;;;4995044;28;20652;-72
2022/09/16 08:09:01;;;;;;;6.50;2.40;;;25.70;99.90;;;;;;4994514;28;20223;-72
2022/09/16 08:11:32;;;;;;;4.45;2.55;;;25.90;99.90;;;;;;4994739;28;20268;-69
2022/09/16 08:14:00;;;;;;;8.48;3.05;;;25.90;99.90;;;;;;4964025;28;20952;-71
2022/09/16 08:16:26;;;;;;;9.13;2.88;;;26.00;99.90;;;;;;4991618;28;20193;-73
2022/09/16 08:18:57;;;;;;;11.23;2.70;;;26.00;99.90;;;;;;4988634;28;20185;-72
2022/09/16 08:21:27;;;;;;;4.70;2.65;;;26.10;99.90;;;;;;4981587;28;20334;-71
2022/09/16 08:23:56;;;;;;;6.20;2.53;;;26.20;99.90;;;;;;4994028;28;20226;-71
2022/09/16 08:26:23;;;;;;;4.65;2.40;;;26.30;99.90;;;;;;5006592;28;20224;-70
2022/09/16 08:28:50;;;;;;;6.57;3.15;;;26.40;99.90;;;;;;4978209;28;20232;-70
2022/09/16 08:31:18;;;;;;;5.13;2.63;;;26.50;99.90;;;;;;5011680;28;20176;-71
2022/09/16 08:33:47;;;;;;;5.97;2.92;;;26.50;99.90;;;;;;4985907;28;20599;-71
2022/09/16 08:36:23;;;;;;;6.97;2.85;;;26.50;99.90;;;;;;5008639;28;20192;-72
2022/09/16 08:38:54;;;;;;;5.65;2.60;;;26.50;99.90;;;;;;5003328;28;20192;-70
2022/09/16 08:41:39;;;;;;;5.45;2.65;;;26.60;99.90;;;;;;4992744;28;20227;-70
2022/09/16 08:44:41;;;;;;;8.88;3.00;;;26.80;99.90;;;;;;4976498;28;20201;-70
2022/09/16 08:47:47;;;;;;;5.05;2.60;;;26.90;99.90;;;;;;5000500;28;21091;-70
2022/09/16 08:50:38;;;;;;;3.92;2.72;;;27.00;99.90;;;;;;4990576;28;20177;-71
2022/09/16 08:53:37;;;;;;;4.45;2.78;;;27.10;99.90;;;;;;4995516;28;20188;-72
2022/09/16 08:56:11;;;;;;;4.78;2.20;;;27.20;99.90;;;;;;4992399;28;20239;-71
2022/09/16 08:58:47;;;;;;;6.20;2.53;;;27.30;99.90;;;;;;5024165;28;20187;-71
2022/09/16 09:01:47;;;;;;;4.80;2.65;;;27.40;99.90;;;;;;5031505;28;20511;-71
2022/09/16 09:04:16;;;;;;;4.72;2.38;;;27.60;99.90;;;;;;5008759;28;20217;-72
2022/09/16 09:07:10;;;;;;;8.18;2.83;;;27.70;99.90;;;;;;4973304;28;20754;-71
2022/09/16 09:10:08;;;;;;;6.10;2.83;;;27.90;99.90;;;;;;5008499;28;20280;-72
2022/09/16 09:13:47;;;;;;;11.40;2.42;;;28.00;99.90;;;;;;4982925;28;20188;-72
2022/09/16 09:16:36;;;;;;;6.00;2.67;;;28.10;99.90;;;;;;4965672;28;20190;-73
2022/09/16 09:19:24;;;;;;;10.55;2.53;;;28.30;99.90;;;;;;4982667;28;20197;-72
2022/09/16 09:22:04;;;;;;;4.03;2.58;;;28.40;99.90;;;;;;5004603;28;20311;-73
2022/09/16 09:24:37;;;;;;;5.95;2.50;;;28.50;99.90;;;;;;5012547;28;20295;-73
2022/09/16 09:27:35;;;;;;;7.03;2.95;;;28.60;99.90;;;;;;5002681;28;20185;-74
2022/09/16 09:30:22;;;;;;;5.15;2.63;;;28.70;99.90;;;;;;4997869;28;20737;-74
2022/09/16 09:33:29;;;;;;;7.15;2.78;;;28.80;99.90;;;;;;4985141;28;20188;-74
2022/09/16 09:36:25;;;;;;;5.18;2.92;;;29.10;99.90;;;;;;5004156;28;20814;-73
2022/09/16 09:39:12;;;;;;;6.65;2.45;;;29.20;99.90;;;;;;4977818;28;20239;-72
2022/09/16 09:41:51;;;;;;;10.13;2.70;;;29.60;99.90;;;;;;5007969;28;20228;-72
2022/09/16 09:44:29;;;;;;;7.57;3.03;;;29.90;99.90;;;;;;5014471;28;20212;-72
2022/09/16 09:47:07;;;;;;;5.75;2.35;;;30.20;99.90;;;;;;5010181;28;20641;-74
2022/09/16 09:49:46;;;;;;;3.80;2.42;;;30.30;99.90;;;;;;4978636;28;20210;-73
2022/09/16 09:52:37;;;;;;;6.43;2.40;;;31.00;99.90;;;;;;4999240;28;20192;-73
2022/09/16 09:55:21;;;;;;;4.38;2.58;;;32.30;99.90;;;;;;4994104;28;20578;-73
2022/09/16 09:58:15;;;;;;;5.57;2.60;;;34.00;99.90;;;;;;4985803;28;20188;-73
2022/09/16 10:00:41;;;;;;;9.00;3.08;;;34.10;99.90;;;;;;4991207;28;20204;-73
2022/09/16 10:03:16;;;;;;;4.70;2.60;;;33.30;99.90;;;;;;4989289;28;20275;-73
2022/09/16 10:05:45;;;;;;;7.03;2.72;;;32.60;99.90;;;;;;5005801;28;20207;-73
2022/09/16 10:08:18;;;;;;;7.55;2.63;;;32.10;99.90;;;;;;5002609;28;20284;-73
2022/09/16 10:11:01;;;;;;;4.18;2.30;;;32.20;99.90;;;;;;4981699;28;20239;-73
2022/09/16 10:13:30;;;;;;;7.63;2.40;;;31.90;99.90;;;;;;4984350;28;20710;-74
2022/09/16 10:16:21;;;;;;;5.82;2.50;;;32.60;99.90;;;;;;4988061;28;20315;-74
2022/09/16 10:19:05;;;;;;;7.75;2.47;;;32.70;99.90;;;;;;4966769;28;20181;-74
2022/09/16 10:22:24;;;;;;;6.38;2.58;;;33.80;99.90;;;;;;4996710;28;20641;-74
2022/09/16 10:25:04;;;;;;;7.18;2.53;;;34.80;99.60;;;;;;4994690;28;20217;-73
2022/09/16 10:27:35;;;;;;;6.03;2.33;;;33.40;99.40;;;;;;4996367;28;20192;-74
2022/09/16 10:30:28;;;;;;;6.10;2.80;;;32.20;99.90;;;;;;4990485;28;20587;-73
2022/09/16 10:33:04;;;;;;;8.13;2.78;;;31.20;99.90;;;;;;4992932;28;20205;-73
2022/09/16 10:35:34;;;;;;;7.28;2.55;;;30.80;99.90;;;;;;4992275;28;20279;-73
2022/09/16 10:38:12;;;;;;;8.40;2.55;;;30.60;99.90;;;;;;5005547;28;20189;-73
2022/09/16 10:40:51;;;;;;;4.97;2.42;;;30.50;99.90;;;;;;4997069;28;20207;-73
2022/09/16 10:43:18;;;;;;;4.90;2.13;;;30.30;99.70;;;;;;5010607;28;20727;-74
2022/09/16 10:45:51;;;;;;;5.45;2.60;;;30.20;99.90;;;;;;4968801;28;20216;-74
2022/09/16 10:48:32;;;;;;;4.10;2.58;;;30.20;99.60;;;;;;4984803;28;20192;-74
2022/09/16 10:51:04;;;;;;;3.25;1.95;;;30.10;98.80;;;;;;4985824;28;20207;-74
2022/09/16 10:53:39;;;;;;;7.40;2.42;;;30.20;99.30;;;;;;4978730;28;20204;-74
2022/09/16 10:56:22;;;;;;;10.60;2.50;;;30.20;98.20;;;;;;4980552;28;20238;-73
2022/09/16 10:59:00;;;;;;;7.68;2.45;;;30.30;99.10;;;;;;5002874;28;20195;-74
2022/09/16 11:02:24;;;;;;;6.80;2.38;;;30.20;98.90;;;;;;4974370;28;20621;-73
2022/09/16 11:05:21;;;;;;;5.88;2.72;;;30.20;99.80;;;;;;4975897;28;20213;-74
2022/09/16 11:08:03;;;;;;;6.55;2.53;;;30.20;99.00;;;;;;4979359;28;20197;-73
2022/09/16 11:11:00;;;;;;;8.20;2.38;;;30.10;98.00;;;;;;5001998;28;20192;-74
2022/09/16 11:13:40;;;;;;;4.55;2.30;;;30.00;97.80;;;;;;5002984;28;20193;-74
2022/09/16 11:16:25;;;;;;;6.00;2.40;;;30.00;98.70;;;;;;5011596;28;21842;-73
2022/09/16 11:19:17;;;;;;;7.05;2.70;;;30.00;97.90;;;;;;4992274;28;20192;-74
2022/09/16 11:21:56;;;;;;;7.78;2.60;;;30.00;98.60;;;;;;4995407;28;20326;-73
2022/09/16 11:25:00;;;;;;;6.40;2.25;;;30.00;98.30;;;;;;4990211;28;20346;-73
2022/09/16 11:27:36;;;;;;;6.60;2.47;;;30.00;98.00;;;;;;4993737;28;20185;-74
2022/09/16 11:30:20;;;;;;;6.55;2.33;;;30.00;99.90;;;;;;5018060;28;20188;-73
2022/09/16 11:33:05;;;;;;;5.03;2.35;;;30.10;98.90;;;;;;5006978;28;20178;-73
2022/09/16 11:35:48;;;;;;;7.28;2.10;;;30.00;98.50;;;;;;5010309;28;20204;-73
2022/09/16 11:38:37;;;;;;;5.90;2.60;;;30.10;98.90;;;;;;4989665;28;20196;-74
2022/09/16 11:41:58;;;;;;;5.22;2.28;;;30.00;99.90;;;;;;5011598;28;20609;-73
2022/09/16 11:45:07;;;;;;;5.60;2.17;;;30.00;99.90;;;;;;4958574;28;20397;-73
2022/09/16 11:48:26;;;;;;;9.50;2.60;;;29.90;99.90;;;;;;4959079;28;20283;-73
2022/09/16 11:51:41;;;;;;;5.60;2.97;;;29.90;99.90;;;;;;4997124;28;20537;-73
2022/09/16 11:54:50;;;;;;;7.45;2.63;;;29.90;99.90;;;;;;4985167;28;20193;-73
2022/09/16 11:57:25;;;;;;;5.55;2.65;;;29.80;99.90;;;;;;5007755;28;20220;-73
2022/09/16 11:59:59;;;;;;;6.13;2.83;;;29.80;99.90;;;;;;5010885;28;20191;-73
2022/09/16 12:02:59;;;;;;;4.50;2.95;;;29.70;99.90;;;;;;5024314;28;20661;-74
2022/09/16 12:06:06;;;;;;;6.50;2.45;;;29.70;99.90;;;;;;4998231;28;20625;-75
2022/09/16 12:09:12;;;;;;;7.57;2.88;;;29.60;99.90;;;;;;4950248;28;20201;-74
2022/09/16 12:11:56;;;;;;;7.55;3.40;;;29.70;99.90;;;;;;4989831;28;20314;-74
2022/09/16 12:14:33;;;;;;;8.27;3.20;;;29.70;99.90;;;;;;4982638;28;20200;-74
2022/09/16 12:17:26;;;;;;;8.93;2.88;;;29.40;99.90;;;;;;5020375;28;20192;-75
2022/09/16 12:20:30;;;;;;;9.85;2.95;;;29.30;99.90;;;;;;4979667;28;20542;-74
2022/09/16 12:23:23;;;;;;;4.72;2.80;;;29.40;99.90;;;;;;4997188;28;20205;-74
2022/09/16 12:25:58;;;;;;;7.80;3.45;;;29.40;99.90;;;;;;4985791;28;20199;-74
2022/09/16 12:28:49;;;;;;;6.97;2.85;;;29.50;99.90;;;;;;5004422;28;20266;-74
2022/09/16 12:31:40;;;;;;;6.80;3.08;;;29.50;99.90;;;;;;4973590;28;20181;-74
2022/09/16 12:34:37;;;;;;;11.25;3.00;;;29.30;99.90;;;;;;5004203;28;20185;-74
2022/09/16 12:37:09;;;;;;;8.38;3.40;;;29.30;99.90;;;;;;4972972;28;20232;-74
2022/09/16 12:39:36;;;;;;;6.82;3.40;;;29.30;99.90;;;;;;4979860;28;20193;-74
2022/09/16 12:42:33;;;;;;;7.40;3.35;;;29.30;99.90;;;;;;5005021;28;20194;-74
2022/09/16 12:45:41;;;;;;;6.50;3.00;;;29.30;99.90;;;;;;5002305;28;20220;-74
2022/09/16 12:48:57;;;;;;;7.15;3.20;;;29.20;99.90;;;;;;4989089;28;20185;-74
2022/09/16 12:51:52;;;;;;;9.77;3.33;;;29.10;99.90;;;;;;4985039;28;20222;-74
2022/09/16 12:54:24;;;;;;;9.50;3.50;;;29.10;99.90;;;;;;4985452;28;20196;-74
2022/09/16 12:57:09;;;;;;;9.23;3.70;;;29.10;99.90;;;;;;5003331;28;20655;-74
2022/09/16 13:00:03;;;;;;;7.20;3.17;;;29.00;99.90;;;;;;5000044;28;20193;-74
2022/09/16 13:03:06;;;;;;;3.72;2.97;;;29.10;99.90;;;;;;4997724;28;20239;-74
2022/09/16 13:05:38;;;;;;;10.50;3.55;;;29.10;99.90;;;;;;4997601;28;20224;-74
2022/09/16 13:08:30;;;;;;;7.28;3.65;;;29.00;99.90;;;;;;5000201;28;20255;-74
2022/09/16 13:11:27;;;;;;;7.55;3.50;;;28.80;99.90;;;;;;4999440;28;20496;-74
2022/09/16 13:13:58;;;;;;;9.50;3.70;;;28.80;99.90;;;;;;4993301;28;20192;-74
2022/09/16 13:16:35;;;;;;;11.38;3.92;;;28.70;99.90;;;;;;4989211;28;20603;-74
2022/09/16 13:19:34;;;;;;;7.40;3.50;;;28.50;99.90;;;;;;4997521;28;20189;-74
2022/09/16 13:22:39;;;;;;;12.20;3.60;;;28.40;99.90;;;;;;5008228;28;20271;-74
2022/09/16 13:25:23;;;;;;;9.70;3.88;;;28.50;99.90;;;;;;4996990;28;20554;-73
2022/09/16 13:28:01;;;;;;;6.38;3.50;;;28.50;99.90;;;;;;4972318;28;20185;-74
2022/09/16 13:30:31;;;;;;;10.35;3.60;;;28.50;99.90;;;;;;5023245;28;20193;-74
2022/09/16 13:33:02;;;;;;;9.27;3.63;;;28.50;99.90;;;;;;4998114;28;20658;-74
2022/09/16 13:35:42;;;;;;;5.78;3.72;;;28.50;99.90;;;;;;4998597;28;20658;-74
2022/09/16 13:38:37;;;;;;;11.73;4.05;;;28.50;99.90;;;;;;4997167;28;20196;-74
2022/09/16 13:41:04;;;;;;;7.32;4.18;;;28.40;99.90;;;;;;4993915;28;20508;-73